Time;durP1;ratioP1;P1;durP2;ratioP2;P2;SDS_P1;SDS_P2;PMS_P1;PMS_P2;Temp;Humidity;BMP_temperature;BMP_pressure;BME280_temperature;BME280_humidity;BME280_pressure;Samples;Min_cycle;Max_cycle;Signal;HPM_P1;HPM_P2
2024/01/07 00:02:12;;;;;;;7.90;4.65;;;;;;;6.08;82.11;93260.09;5085476;28;20032;-70
2024/01/07 00:04:37;;;;;;;6.72;4.63;;;;;;;5.94;82.23;93245.88;5084186;28;20496;-70
2024/01/07 00:07:04;;;;;;;6.80;4.47;;;;;;;6.20;80.73;93255.59;5085808;28;20482;-69
2024/01/07 00:09:29;;;;;;;6.55;3.78;;;;;;;6.26;79.41;93236.97;5079172;28;20670;-70
2024/01/07 00:11:55;;;;;;;7.07;4.30;;;;;;;5.91;79.12;93222.09;5069651;28;20057;-70
2024/01/07 00:14:20;;;;;;;6.97;4.20;;;;;;;5.89;79.62;93224.00;5054882;28;20021;-70
2024/01/07 00:16:46;;;;;;;11.30;6.05;;;;;;;5.71;80.37;93227.28;5070988;28;20035;-69
2024/01/07 00:19:11;;;;;;;8.00;5.07;;;;;;;5.49;82.01;93224.94;5055435;28;20024;-69
2024/01/07 00:21:36;;;;;;;8.45;5.32;;;;;;;5.29;83.57;93222.38;5090293;28;20043;-69
2024/01/07 00:24:02;;;;;;;8.38;5.05;;;;;;;5.26;84.23;93226.97;5089508;28;20043;-69
2024/01/07 00:26:27;;;;;;;7.97;5.38;;;;;;;5.28;84.81;93220.72;5091286;28;20405;-69
2024/01/07 00:28:53;;;;;;;8.57;5.40;;;;;;;5.27;84.61;93208.00;5089936;28;20413;-69
2024/01/07 00:31:18;;;;;;;7.22;4.80;;;;;;;5.31;83.37;93189.56;5089816;28;20101;-69
2024/01/07 00:33:44;;;;;;;6.25;4.53;;;;;;;5.37;82.42;93198.50;5091046;28;20091;-69
2024/01/07 00:36:09;;;;;;;8.68;4.35;;;;;;;5.36;82.01;93177.09;5090306;28;20051;-69
2024/01/07 00:38:34;;;;;;;6.78;5.15;;;;;;;5.38;81.47;93189.84;5078033;28;20024;-69
2024/01/07 00:41:00;;;;;;;6.57;4.60;;;;;;;5.35;80.76;93184.97;5081802;28;20028;-69
2024/01/07 00:43:25;;;;;;;15.55;7.95;;;;;;;5.20;81.05;93187.13;5091086;28;20024;-69
2024/01/07 00:45:51;;;;;;;15.93;7.95;;;;;;;5.11;81.55;93163.00;5069045;28;20031;-69
2024/01/07 00:48:16;;;;;;;8.02;5.38;;;;;;;5.19;82.11;93162.31;5078221;28;20035;-69
2024/01/07 00:50:42;;;;;;;6.90;4.95;;;;;;;5.23;82.24;93153.38;5076125;28;20032;-69
2024/01/07 00:53:07;;;;;;;7.40;5.32;;;;;;;5.12;82.77;93143.22;5072791;28;20478;-70
2024/01/07 00:55:35;;;;;;;7.80;4.53;;;;;;;4.97;83.76;93134.28;5090620;28;20114;-69
2024/01/07 00:58:00;;;;;;;7.85;4.65;;;;;;;5.15;84.93;93142.94;5053535;28;20063;-69
2024/01/07 01:00:27;;;;;;;8.45;4.80;;;;;;;5.08;85.71;93141.88;5070943;28;20608;-71
2024/01/07 01:02:52;;;;;;;5.95;4.93;;;;;;;5.12;85.84;93138.06;5089527;28;20058;-70
2024/01/07 01:05:18;;;;;;;8.18;5.05;;;;;;;5.07;86.19;93135.06;5072611;28;20097;-71
2024/01/07 01:07:43;;;;;;;7.38;4.97;;;;;;;5.22;86.27;93135.50;5068058;28;20478;-71
2024/01/07 01:10:09;;;;;;;7.10;4.93;;;;;;;5.26;86.34;93117.06;5070509;28;20540;-71
2024/01/07 01:12:34;;;;;;;9.50;6.47;;;;;;;5.55;85.78;93126.53;5085865;28;20077;-71
2024/01/07 01:15:00;;;;;;;12.43;8.95;;;;;;;5.51;83.82;93122.59;5090703;28;20418;-71
2024/01/07 01:17:25;;;;;;;13.15;9.43;;;;;;;5.50;84.19;93116.63;5086873;28;20035;-71
2024/01/07 01:19:51;;;;;;;12.73;9.25;;;;;;;5.59;83.36;93108.06;5089276;28;20035;-71
2024/01/07 01:22:16;;;;;;;16.17;10.30;;;;;;;5.54;83.96;93107.69;5072311;28;20028;-71
2024/01/07 01:24:43;;;;;;;11.25;8.05;;;;;;;5.71;83.34;93098.44;5090450;28;20043;-71
2024/01/07 01:27:10;;;;;;;11.68;8.57;;;;;;;5.80;82.81;93095.03;5063335;28;20458;-71
2024/01/07 01:29:36;;;;;;;12.15;8.60;;;;;;;5.81;82.56;93094.06;5068984;28;20031;-71
2024/01/07 01:32:01;;;;;;;13.02;8.88;;;;;;;5.86;82.67;93090.25;5071629;28;20032;-71
2024/01/07 01:34:27;;;;;;;10.80;7.82;;;;;;;5.96;82.28;93076.41;5052391;28;20029;-71
2024/01/07 01:36:52;;;;;;;11.95;8.30;;;;;;;5.92;81.92;93066.50;5076055;28;20032;-71
2024/01/07 01:39:18;;;;;;;10.35;7.88;;;;;;;6.01;81.75;93066.47;5092974;28;20031;-71
2024/01/07 01:41:43;;;;;;;15.73;8.55;;;;;;;5.87;81.51;93051.44;5076383;28;20043;-71
2024/01/07 01:44:09;;;;;;;12.18;8.10;;;;;;;5.95;82.00;93059.31;5076305;28;20039;-71
2024/01/07 01:46:34;;;;;;;14.13;7.72;;;;;;;6.03;81.62;93050.88;5075391;28;20441;-71
2024/01/07 01:49:00;;;;;;;8.73;6.22;;;;;;;6.14;81.14;93037.00;5071962;28;20032;-71
2024/01/07 01:51:25;;;;;;;11.02;6.57;;;;;;;6.10;81.73;93036.47;5056223;28;20029;-71
2024/01/07 01:53:51;;;;;;;12.18;6.80;;;;;;;5.94;81.78;92992.47;5051791;28;20051;-71
2024/01/07 01:56:20;;;;;;;6.65;4.90;;;;;;;6.19;81.25;93025.28;5072520;28;20427;-71
2024/01/07 01:58:46;;;;;;;6.65;4.10;;;;;;;6.15;81.47;93028.28;5067881;28;20016;-71
2024/01/07 02:01:12;;;;;;;6.18;4.00;;;;;;;6.22;81.04;93021.63;5072390;28;20566;-71
2024/01/07 02:03:37;;;;;;;6.72;4.00;;;;;;;6.01;81.67;93021.84;5085633;28;20024;-72
2024/01/07 02:06:03;;;;;;;5.25;3.50;;;;;;;5.94;83.33;93031.13;5058878;28;20043;-70
2024/01/07 02:08:28;;;;;;;6.43;4.47;;;;;;;5.89;83.61;93028.13;5082438;28;20535;-69
2024/01/07 02:10:53;;;;;;;11.23;6.25;;;;;;;6.00;84.70;93027.97;5092821;28;20213;-69
2024/01/07 02:13:19;;;;;;;12.63;7.90;;;;;;;6.03;84.88;93025.91;5087953;28;20411;-69
2024/01/07 02:15:44;;;;;;;15.05;9.25;;;;;;;6.10;84.78;93015.84;5055560;28;20028;-70
2024/01/07 02:18:10;;;;;;;10.77;5.93;;;;;;;6.14;84.47;93006.88;5078192;28;20031;-70
2024/01/07 02:20:35;;;;;;;8.27;4.47;;;;;;;6.13;84.43;92982.03;5092265;28;20043;-70
2024/01/07 02:23:02;;;;;;;6.22;4.32;;;;;;;6.25;84.48;92967.19;5092374;28;20020;-71
2024/01/07 02:25:27;;;;;;;5.97;4.00;;;;;;;6.35;84.23;92962.78;5076590;28;20419;-70
2024/01/07 02:27:53;;;;;;;7.97;5.30;;;;;;;6.46;83.69;92954.81;5071751;28;20040;-70
2024/01/07 02:30:18;;;;;;;5.88;4.47;;;;;;;6.50;83.00;92929.53;5091916;28;20028;-70
2024/01/07 02:32:43;;;;;;;5.25;4.20;;;;;;;6.57;82.63;92935.69;5074584;28;20036;-70
2024/01/07 02:35:09;;;;;;;4.85;3.53;;;;;;;6.42;82.79;92940.56;5093388;28;20036;-70
2024/01/07 02:37:34;;;;;;;5.53;3.85;;;;;;;6.37;82.82;92936.81;5092083;28;20027;-70
2024/01/07 02:40:00;;;;;;;5.47;4.00;;;;;;;6.32;83.27;92944.19;5074967;28;20634;-70
2024/01/07 02:42:25;;;;;;;5.18;3.95;;;;;;;6.25;83.83;92936.22;5093283;28;20413;-70
2024/01/07 02:44:51;;;;;;;4.97;3.72;;;;;;;6.34;83.52;92937.13;5089533;28;20081;-70
2024/01/07 02:47:16;;;;;;;6.80;4.07;;;;;;;6.20;84.09;92928.94;5092139;28;20024;-70
2024/01/07 02:49:41;;;;;;;5.90;3.97;;;;;;;6.17;84.64;92934.38;5071177;28;20040;-71
2024/01/07 02:52:07;;;;;;;5.43;3.63;;;;;;;6.13;85.06;92911.59;5072953;28;20090;-70
2024/01/07 02:54:32;;;;;;;7.85;4.43;;;;;;;6.38;85.22;92939.25;5092706;28;20028;-70
2024/01/07 02:56:57;;;;;;;7.65;4.18;;;;;;;6.40;84.96;92952.00;5074844;28;20048;-69
2024/01/07 02:59:23;;;;;;;4.63;3.78;;;;;;;6.44;84.90;92967.03;5074444;28;20020;-70
2024/01/07 03:01:48;;;;;;;6.18;3.75;;;;;;;6.37;84.86;92935.03;5091113;28;20028;-70
2024/01/07 03:04:15;;;;;;;6.20;3.45;;;;;;;6.64;84.61;92947.06;5063477;28;20025;-70
2024/01/07 03:06:41;;;;;;;5.13;4.07;;;;;;;6.76;84.02;92947.63;5091759;28;20059;-70
2024/01/07 03:09:07;;;;;;;13.30;10.93;;;;;;;6.57;83.23;92946.03;5070410;28;20494;-69
2024/01/07 03:11:32;;;;;;;9.70;7.07;;;;;;;6.74;82.90;92951.31;5089379;28;20024;-70
2024/01/07 03:13:58;;;;;;;11.50;8.00;;;;;;;6.87;81.81;92949.97;5057356;28;20119;-70
2024/01/07 03:16:24;;;;;;;14.52;9.13;;;;;;;6.46;82.33;92921.28;5091126;28;20032;-70
2024/01/07 03:18:49;;;;;;;11.57;7.40;;;;;;;6.43;82.41;92934.44;5091451;28;20024;-70
2024/01/07 03:21:23;;;;;;;9.75;7.72;;;;;;;6.46;83.72;92962.56;5091206;28;20390;-70
2024/01/07 03:23:49;;;;;;;14.30;9.65;;;;;;;6.43;83.97;92969.75;5091227;28;20039;-70
2024/01/07 03:26:16;;;;;;;14.63;9.18;;;;;;;6.36;84.23;92963.56;5070367;28;20060;-70
2024/01/07 03:28:41;;;;;;;9.52;7.28;;;;;;;6.61;84.30;92962.03;5054133;28;20032;-71
2024/01/07 03:31:12;;;;;;;8.15;5.57;;;;;;;6.59;85.41;92962.16;5071731;28;20044;-70
2024/01/07 03:33:38;;;;;;;6.70;4.65;;;;;;;6.55;85.91;92947.97;5070576;28;20024;-70
2024/01/07 03:36:13;;;;;;;5.70;4.68;;;;;;;6.67;86.09;92951.13;5070418;28;20556;-70
2024/01/07 03:38:39;;;;;;;9.02;4.82;;;;;;;6.63;85.59;92948.03;5087232;28;20024;-71
2024/01/07 03:41:04;;;;;;;36.33;32.70;;;;;;;6.46;87.27;92946.25;5070552;28;20506;-71
2024/01/07 03:43:30;;;;;;;6.65;4.85;;;;;;;6.64;88.48;92954.81;5070919;28;20043;-71
2024/01/07 03:45:55;;;;;;;6.15;5.22;;;;;;;6.67;89.16;92936.44;5037570;28;20131;-71
2024/01/07 03:48:21;;;;;;;4.80;3.58;;;;;;;6.78;89.02;92937.97;5054141;28;20028;-71
2024/01/07 03:50:46;;;;;;;4.07;3.25;;;;;;;6.96;89.24;92935.34;5070370;28;20040;-71
2024/01/07 03:53:12;;;;;;;3.90;2.90;;;;;;;6.86;89.31;92916.59;5070851;28;20040;-71
2024/01/07 03:55:37;;;;;;;3.60;2.85;;;;;;;7.00;88.95;92925.56;5083480;28;20056;-71
2024/01/07 03:58:04;;;;;;;3.85;2.50;;;;;;;6.91;89.63;92911.78;5090793;28;20032;-71
2024/01/07 04:00:29;;;;;;;4.38;2.50;;;;;;;7.05;88.65;92912.97;5082863;28;20037;-71
2024/01/07 04:02:55;;;;;;;3.55;2.40;;;;;;;7.12;88.54;92899.31;5053882;28;20039;-71
2024/01/07 04:05:20;;;;;;;4.25;2.28;;;;;;;7.08;88.25;92908.34;5070221;28;20089;-71
2024/01/07 04:07:46;;;;;;;4.18;2.53;;;;;;;7.07;88.80;92885.25;5071434;28;20023;-71
2024/01/07 04:10:11;;;;;;;3.97;2.60;;;;;;;7.29;87.54;92907.16;5070339;28;20410;-71
2024/01/07 04:12:36;;;;;;;4.57;2.28;;;;;;;7.16;87.54;92889.50;5071553;28;20031;-71
2024/01/07 04:15:02;;;;;;;4.30;1.88;;;;;;;7.29;87.96;92896.81;5053694;28;20169;-71
2024/01/07 04:17:27;;;;;;;2.97;1.85;;;;;;;7.33;87.53;92905.91;5070237;28;20028;-71
2024/01/07 04:19:53;;;;;;;2.58;2.00;;;;;;;7.36;87.37;92905.59;5053178;28;20040;-71
2024/01/07 04:22:18;;;;;;;5.38;3.63;;;;;;;7.42;86.01;92902.38;5070169;28;20032;-71
2024/01/07 04:24:44;;;;;;;6.72;4.93;;;;;;;7.27;86.31;92888.41;5070003;28;20406;-71
2024/01/07 04:27:09;;;;;;;5.75;4.75;;;;;;;7.44;86.23;92908.22;5070126;28;20028;-71
2024/01/07 04:29:35;;;;;;;6.82;4.85;;;;;;;7.46;85.63;92903.69;5036641;28;20538;-71
2024/01/07 04:32:01;;;;;;;4.38;3.85;;;;;;;7.42;85.38;92899.00;5071183;28;20034;-71
2024/01/07 04:34:26;;;;;;;5.40;4.05;;;;;;;7.20;85.49;92885.66;5071935;28;20028;-69
2024/01/07 04:36:52;;;;;;;8.18;6.00;;;;;;;7.24;85.83;92896.47;5069863;28;20051;-69
2024/01/07 04:39:17;;;;;;;8.90;6.10;;;;;;;7.24;85.74;92884.38;5071149;28;20490;-71
2024/01/07 04:41:42;;;;;;;9.63;5.32;;;;;;;7.22;85.46;92898.41;5053243;28;20082;-69
2024/01/07 04:44:08;;;;;;;3.85;2.60;;;;;;;7.14;86.15;92889.66;5053934;28;20044;-71
2024/01/07 04:46:35;;;;;;;8.32;3.55;;;;;;;7.15;85.84;92883.50;5069894;28;20086;-70
2024/01/07 04:49:00;;;;;;;8.55;5.03;;;;;;;7.13;85.81;92885.47;5053214;28;20032;-69
2024/01/07 04:51:26;;;;;;;9.60;5.03;;;;;;;7.31;85.35;92892.31;5055484;28;20032;-69
2024/01/07 04:53:51;;;;;;;8.23;5.88;;;;;;;7.28;85.15;92914.09;5069669;28;20029;-69
2024/01/07 04:56:16;;;;;;;9.50;6.30;;;;;;;7.10;85.76;92908.16;5069514;28;20053;-69
2024/01/07 04:58:42;;;;;;;7.03;5.70;;;;;;;6.98;86.51;92901.66;5070839;28;20494;-69
2024/01/07 05:01:07;;;;;;;10.60;6.25;;;;;;;7.10;86.15;92910.75;5052966;28;20091;-70
2024/01/07 05:03:33;;;;;;;10.02;6.40;;;;;;;6.88;86.23;92897.41;5052796;28;20020;-71
2024/01/07 05:05:59;;;;;;;12.25;6.93;;;;;;;6.88;86.58;92897.41;5052982;28;20413;-71
2024/01/07 05:08:24;;;;;;;12.40;6.93;;;;;;;6.92;86.90;92897.91;5069388;28;20031;-69
2024/01/07 05:10:50;;;;;;;8.32;6.40;;;;;;;6.96;86.43;92888.88;5068859;28;20048;-69
2024/01/07 05:13:15;;;;;;;8.52;6.68;;;;;;;7.05;86.40;92892.31;5070807;28;20036;-70
2024/01/07 05:15:40;;;;;;;9.93;6.78;;;;;;;7.00;86.64;92902.31;5069508;28;20535;-70
2024/01/07 05:18:09;;;;;;;10.00;6.30;;;;;;;6.97;86.77;92889.72;5053888;28;20039;-70
2024/01/07 05:20:35;;;;;;;9.77;7.55;;;;;;;6.68;87.17;92881.28;5085859;28;20391;-69
2024/01/07 05:23:00;;;;;;;9.65;7.88;;;;;;;6.77;87.21;92886.50;5085461;28;20093;-69
2024/01/07 05:25:26;;;;;;;11.25;7.47;;;;;;;6.57;87.72;92909.09;5084893;28;20036;-69
2024/01/07 05:27:51;;;;;;;11.73;7.70;;;;;;;6.41;88.62;92899.47;5085417;28;20081;-69
2024/01/07 05:30:17;;;;;;;13.32;8.52;;;;;;;6.56;88.84;92912.66;5083987;28;20082;-69
2024/01/07 05:32:42;;;;;;;10.55;8.27;;;;;;;6.69;88.21;92906.13;5085095;28;20044;-69
2024/01/07 05:35:08;;;;;;;12.57;8.82;;;;;;;6.70;87.75;92894.84;5085298;28;20043;-69
2024/01/07 05:37:33;;;;;;;17.20;11.68;;;;;;;6.52;87.58;92893.25;5084722;28;20027;-69
2024/01/07 05:39:59;;;;;;;18.65;12.38;;;;;;;6.61;87.26;92890.59;5081616;28;20036;-69
2024/01/07 05:42:24;;;;;;;15.40;11.27;;;;;;;6.54;87.66;92904.22;5082554;28;20024;-70
2024/01/07 05:44:50;;;;;;;15.80;11.60;;;;;;;6.30;87.79;92907.44;5083255;28;20044;-68
2024/01/07 05:47:16;;;;;;;20.23;14.82;;;;;;;6.09;88.59;92903.34;5050209;28;20144;-68
2024/01/07 05:49:42;;;;;;;30.42;17.52;;;;;;;6.28;88.33;92933.34;5082131;28;20060;-69
2024/01/07 05:52:07;;;;;;;23.25;14.32;;;;;;;6.44;87.84;92924.97;5083413;28;20073;-68
2024/01/07 05:54:33;;;;;;;36.35;18.85;;;;;;;6.18;87.95;92909.41;5066978;28;20528;-69
2024/01/07 05:56:59;;;;;;;30.17;16.77;;;;;;;6.35;88.07;92912.94;5067791;28;20533;-68
2024/01/07 05:59:24;;;;;;;25.23;16.60;;;;;;;6.31;87.71;92906.47;5085577;28;20024;-69
2024/01/07 06:01:49;;;;;;;27.15;18.15;;;;;;;6.30;87.79;92902.28;5081757;28;20040;-68
2024/01/07 06:04:15;;;;;;;25.20;16.02;;;;;;;6.45;86.77;92899.00;5069100;28;20394;-68
2024/01/07 06:06:40;;;;;;;20.83;14.80;;;;;;;6.41;86.89;92910.59;5085016;28;20811;-68
2024/01/07 06:09:06;;;;;;;19.83;12.65;;;;;;;6.47;86.83;92906.63;5077744;28;20061;-69
2024/01/07 06:11:32;;;;;;;15.73;12.68;;;;;;;6.42;86.70;92901.88;5065516;28;20029;-68
2024/01/07 06:13:57;;;;;;;20.73;14.18;;;;;;;6.52;86.64;92896.66;5068533;28;20425;-68
2024/01/07 06:16:23;;;;;;;20.17;15.27;;;;;;;6.32;87.60;92890.03;5066910;28;20054;-69
2024/01/07 06:18:48;;;;;;;20.73;17.05;;;;;;;6.22;88.14;92870.28;5085147;28;20433;-68
2024/01/07 06:21:14;;;;;;;26.85;20.58;;;;;;;6.03;88.28;92880.75;5080565;28;20032;-68
2024/01/07 06:23:39;;;;;;;40.05;28.90;;;;;;;5.92;89.30;92878.34;5082604;28;20521;-68
2024/01/07 06:26:05;;;;;;;32.60;25.30;;;;;;;5.96;89.17;92884.84;5087684;28;20035;-69
2024/01/07 06:28:30;;;;;;;43.67;34.97;;;;;;;6.14;88.95;92888.25;5069890;28;20041;-68
2024/01/07 06:30:56;;;;;;;31.40;24.77;;;;;;;6.23;87.71;92881.41;5086797;28;20035;-68
2024/01/07 06:33:21;;;;;;;30.60;22.15;;;;;;;6.17;87.35;92890.53;5085843;28;20062;-68
2024/01/07 06:35:46;;;;;;;39.10;24.42;;;;;;;5.99;88.06;92900.03;5083426;28;20032;-69
2024/01/07 06:38:12;;;;;;;26.58;19.10;;;;;;;5.87;89.52;92901.97;5082779;28;20107;-68
2024/01/07 06:40:37;;;;;;;27.30;17.38;;;;;;;6.02;89.97;92910.06;5067359;28;20040;-69
2024/01/07 06:43:03;;;;;;;24.88;17.00;;;;;;;6.11;89.42;92906.59;5087944;28;20047;-68
2024/01/07 06:45:28;;;;;;;19.70;15.10;;;;;;;6.22;89.05;92919.28;5071645;28;20501;-68
2024/01/07 06:47:54;;;;;;;20.38;15.23;;;;;;;6.10;89.03;92905.00;5087247;28;20036;-69
2024/01/07 06:50:20;;;;;;;21.33;16.10;;;;;;;6.28;88.97;92922.22;5086782;28;20478;-68
2024/01/07 06:52:46;;;;;;;23.48;16.58;;;;;;;6.17;88.49;92933.56;5070371;28;20039;-69
2024/01/07 06:55:11;;;;;;;28.55;20.58;;;;;;;6.24;89.10;92925.13;5084489;28;20115;-69
2024/01/07 06:57:36;;;;;;;34.58;26.48;;;;;;;6.25;88.98;92928.50;5086104;28;20024;-68
2024/01/07 07:00:03;;;;;;;38.03;25.65;;;;;;;6.45;88.41;92939.47;5082814;28;20051;-69
2024/01/07 07:02:28;;;;;;;36.28;24.80;;;;;;;6.46;88.06;92926.44;5080307;28;20062;-69
2024/01/07 07:04:53;;;;;;;42.65;30.48;;;;;;;6.18;88.89;92920.53;5051577;28;20058;-68
2024/01/07 07:07:19;;;;;;;39.25;28.63;;;;;;;6.42;88.95;92914.78;5070797;28;20024;-68
2024/01/07 07:09:44;;;;;;;42.67;33.17;;;;;;;6.33;89.41;92925.19;5086019;28;20478;-69
2024/01/07 07:12:12;;;;;;;39.80;30.92;;;;;;;6.15;89.52;92907.91;5085369;28;20032;-68
2024/01/07 07:14:37;;;;;;;35.58;26.88;;;;;;;6.28;89.50;92893.88;5083012;28;20492;-68
2024/01/07 07:17:03;;;;;;;34.70;25.70;;;;;;;6.46;89.25;92892.06;5065814;28;20032;-68
2024/01/07 07:19:28;;;;;;;29.35;21.00;;;;;;;6.56;89.56;92912.66;5085577;28;20035;-68
2024/01/07 07:21:54;;;;;;;25.63;19.55;;;;;;;6.63;89.46;92904.16;5082249;28;20520;-68
2024/01/07 07:24:19;;;;;;;29.30;21.65;;;;;;;6.56;89.19;92876.53;5083389;28;20020;-68
2024/01/07 07:26:44;;;;;;;27.83;21.38;;;;;;;6.64;90.16;92910.13;5082465;28;20043;-69
2024/01/07 07:29:10;;;;;;;24.55;20.33;;;;;;;6.79;89.53;92898.28;5087667;28;20031;-68
2024/01/07 07:31:36;;;;;;;26.77;20.23;;;;;;;6.59;90.19;92905.41;5083230;28;20494;-68
2024/01/07 07:34:03;;;;;;;33.65;24.50;;;;;;;6.81;89.75;92898.16;5069442;28;20034;-68
2024/01/07 07:36:29;;;;;;;44.75;27.63;;;;;;;6.94;89.56;92885.66;5069578;28;20101;-68
2024/01/07 07:38:55;;;;;;;20.92;15.43;;;;;;;7.00;89.66;92903.13;5067449;28;20514;-68
2024/01/07 07:41:20;;;;;;;18.85;13.93;;;;;;;6.87;90.21;92902.72;5082461;28;20066;-68
2024/01/07 07:43:45;;;;;;;19.52;14.13;;;;;;;7.09;90.25;92909.16;5088146;28;20481;-69
2024/01/07 07:46:11;;;;;;;19.25;12.05;;;;;;;6.99;90.77;92883.41;5083553;28;20500;-70
2024/01/07 07:48:37;;;;;;;18.67;12.02;;;;;;;7.24;90.84;92893.88;5084708;28;20040;-69
2024/01/07 07:51:03;;;;;;;17.73;12.10;;;;;;;7.48;90.17;92886.25;5065408;28;20429;-68
2024/01/07 07:53:28;;;;;;;15.35;11.45;;;;;;;7.29;90.15;92864.06;5085007;28;20481;-68
2024/01/07 07:55:54;;;;;;;12.05;9.98;;;;;;;7.57;89.18;92871.59;5080491;28;20055;-67
2024/01/07 07:58:19;;;;;;;63.22;39.75;;;;;;;7.30;89.43;92875.19;5069269;28;20035;-67
2024/01/07 08:00:45;;;;;;;49.78;36.03;;;;;;;7.21;90.59;92879.50;5078023;28;20266;-67
2024/01/07 08:03:10;;;;;;;35.38;24.02;;;;;;;7.24;90.44;92880.97;5084581;28;20031;-67
2024/01/07 08:05:36;;;;;;;31.70;21.92;;;;;;;7.52;89.36;92879.84;5080260;28;20035;-67
2024/01/07 08:08:01;;;;;;;28.40;19.73;;;;;;;7.30;89.27;92878.59;5083511;28;20024;-67
2024/01/07 08:10:28;;;;;;;31.70;22.58;;;;;;;7.52;89.04;92899.66;5086748;28;20125;-68
2024/01/07 08:12:54;;;;;;;30.63;23.55;;;;;;;7.59;88.34;92883.41;5085104;28;20032;-66
2024/01/07 08:15:19;;;;;;;29.83;19.92;;;;;;;7.67;88.04;92887.78;5083543;28;20145;-66
2024/01/07 08:17:45;;;;;;;22.83;15.93;;;;;;;7.64;86.45;92882.94;5068397;28;20036;-66
2024/01/07 08:20:11;;;;;;;30.17;19.40;;;;;;;7.41;87.47;92881.84;5052028;28;20446;-66
2024/01/07 08:22:36;;;;;;;24.67;18.17;;;;;;;7.66;86.89;92887.94;5083443;28;20032;-67
2024/01/07 08:25:02;;;;;;;26.85;20.63;;;;;;;7.52;87.55;92879.00;5069161;28;20059;-67
2024/01/07 08:27:27;;;;;;;40.15;26.08;;;;;;;7.74;85.44;92877.63;5068183;28;20516;-67
2024/01/07 08:29:53;;;;;;;28.15;18.45;;;;;;;7.67;85.56;92876.66;5070185;28;20032;-68
2024/01/07 08:32:19;;;;;;;44.97;24.75;;;;;;;7.91;85.05;92894.81;5063933;28;20496;-68
2024/01/07 08:34:44;;;;;;;32.65;20.08;;;;;;;7.93;84.52;92882.53;5083247;28;20032;-67
2024/01/07 08:37:10;;;;;;;20.80;14.13;;;;;;;7.95;84.68;92888.34;5082473;28;20063;-72
2024/01/07 08:39:36;;;;;;;18.48;12.32;;;;;;;8.17;83.34;92892.13;5085001;28;20020;-72
2024/01/07 08:42:03;;;;;;;29.20;17.13;;;;;;;7.77;84.22;92878.16;5080907;28;20043;-72
2024/01/07 08:44:28;;;;;;;24.02;16.20;;;;;;;7.89;84.42;92890.78;5083027;28;20098;-72
2024/01/07 08:46:54;;;;;;;34.55;22.20;;;;;;;7.66;85.07;92882.75;5081015;28;20044;-71
2024/01/07 08:49:19;;;;;;;19.65;12.27;;;;;;;7.55;85.73;92865.75;5083639;28;20506;-71
2024/01/07 08:51:45;;;;;;;16.98;14.07;;;;;;;7.79;84.88;92854.72;5081263;28;20059;-72
2024/01/07 08:54:10;;;;;;;20.55;12.20;;;;;;;8.13;83.07;92874.50;5087265;28;20055;-69
2024/01/07 08:56:36;;;;;;;14.40;11.27;;;;;;;7.82;84.24;92862.13;5081007;28;20040;-72
2024/01/07 08:59:01;;;;;;;15.55;11.52;;;;;;;7.96;83.62;92824.53;5050235;28;20429;-72
2024/01/07 09:01:27;;;;;;;13.05;9.82;;;;;;;8.32;83.36;92856.09;5045828;28;20036;-72
2024/01/07 09:03:52;;;;;;;15.20;10.88;;;;;;;8.35;83.46;92891.97;5085615;28;20023;-73
2024/01/07 09:06:17;;;;;;;17.85;11.35;;;;;;;8.29;82.78;92880.50;5068473;28;20097;-72
2024/01/07 09:08:43;;;;;;;14.02;11.10;;;;;;;8.15;83.48;92881.13;5085443;28;20105;-72
2024/01/07 09:11:11;;;;;;;21.52;13.00;;;;;;;8.38;82.93;92870.16;5082938;28;20063;-73
2024/01/07 09:13:36;;;;;;;21.67;16.48;;;;;;;8.60;83.37;92876.50;5049334;28;20543;-73
2024/01/07 09:16:02;;;;;;;15.07;12.15;;;;;;;8.43;83.20;92873.91;5047268;28;20506;-73
2024/01/07 09:18:27;;;;;;;19.65;14.60;;;;;;;8.19;84.58;92874.69;5058742;28;20409;-72
2024/01/07 09:20:53;;;;;;;21.20;15.95;;;;;;;8.26;84.85;92882.59;5078066;28;20120;-71
2024/01/07 09:23:18;;;;;;;29.90;18.52;;;;;;;8.34;84.45;92890.38;5085593;28;20031;-72
2024/01/07 09:25:46;;;;;;;18.00;12.52;;;;;;;8.33;84.58;92883.59;5079744;28;20624;-72
2024/01/07 09:28:11;;;;;;;22.17;16.55;;;;;;;8.28;85.39;92865.94;5085584;28;20046;-72
2024/01/07 09:30:38;;;;;;;19.45;15.77;;;;;;;8.44;84.67;92875.53;5085359;28;20066;-73
2024/01/07 09:33:03;;;;;;;26.30;19.73;;;;;;;8.19;85.22;92871.25;5084877;28;20020;-73
2024/01/07 09:35:29;;;;;;;26.17;19.67;;;;;;;8.38;84.60;92878.72;5084585;28;20044;-72
2024/01/07 09:37:54;;;;;;;26.08;20.27;;;;;;;8.20;86.04;92865.13;5077499;28;20028;-72
2024/01/07 09:40:20;;;;;;;26.27;18.35;;;;;;;8.27;84.44;92855.75;5078050;28;20571;-73
2024/01/07 09:42:45;;;;;;;22.27;15.73;;;;;;;8.36;84.39;92862.56;5066889;28;20036;-72
2024/01/07 09:45:12;;;;;;;16.77;12.27;;;;;;;8.74;83.35;92849.94;5061388;28;20094;-72
2024/01/07 09:47:38;;;;;;;14.32;11.07;;;;;;;8.90;82.55;92855.13;5067953;28;20028;-72
2024/01/07 09:50:05;;;;;;;13.73;9.88;;;;;;;8.95;82.59;92865.78;5066633;28;20120;-72
2024/01/07 09:52:30;;;;;;;12.52;9.35;;;;;;;9.13;82.12;92864.78;5081986;28;20032;-73
2024/01/07 09:54:59;;;;;;;12.88;9.25;;;;;;;9.15;82.09;92873.22;5066525;28;20085;-71
2024/01/07 09:57:25;;;;;;;12.98;9.75;;;;;;;9.25;82.06;92868.66;5087683;28;20392;-72
2024/01/07 09:59:50;;;;;;;12.18;8.85;;;;;;;9.34;80.76;92874.63;5050906;28;20481;-72
2024/01/07 10:02:16;;;;;;;14.55;9.70;;;;;;;9.05;81.69;92877.75;5087439;28;20047;-72
2024/01/07 10:04:47;;;;;;;14.13;8.90;;;;;;;9.08;80.69;92867.06;5071210;28;20269;-72
2024/01/07 10:07:12;;;;;;;15.05;11.00;;;;;;;9.32;79.85;92877.38;5089315;28;20039;-72
2024/01/07 10:09:39;;;;;;;12.60;10.00;;;;;;;9.51;79.08;92870.19;5080290;28;20060;-72
2024/01/07 10:12:05;;;;;;;7.90;5.78;;;;;;;9.49;77.05;92862.56;5071147;28;20470;-73
2024/01/07 10:14:31;;;;;;;9.45;6.28;;;;;;;9.31;77.05;92855.03;5070185;28;20036;-72
2024/01/07 10:16:57;;;;;;;7.03;5.10;;;;;;;9.61;76.58;92837.09;5085719;28;20024;-71
2024/01/07 10:19:23;;;;;;;7.13;4.47;;;;;;;9.67;74.13;92845.97;5083461;28;20571;-72
2024/01/07 10:22:09;;;;;;;7.72;4.28;;;;;;;9.75;74.26;92838.97;5088614;28;20040;-72
2024/01/07 10:24:41;;;;;;;8.02;5.60;;;;;;;9.72;74.73;92828.94;5086173;28;20040;-72
2024/01/07 10:27:07;;;;;;;10.50;5.18;;;;;;;9.72;75.35;92831.53;5066498;28;20048;-72
2024/01/07 10:29:32;;;;;;;10.45;5.97;;;;;;;9.99;75.88;92835.44;5068826;28;20463;-73
2024/01/07 10:31:59;;;;;;;8.75;6.43;;;;;;;9.93;76.12;92830.13;5083869;28;20020;-73
2024/01/07 10:34:24;;;;;;;9.27;6.32;;;;;;;9.64;77.02;92831.59;5083510;28;20052;-72
2024/01/07 10:36:51;;;;;;;7.43;6.20;;;;;;;9.45;77.69;92819.03;5069689;28;20054;-73
2024/01/07 10:39:17;;;;;;;10.75;6.40;;;;;;;9.47;77.04;92817.88;5083184;28;20028;-72
2024/01/07 10:41:42;;;;;;;8.52;6.13;;;;;;;9.55;77.66;92806.66;5066435;28;20051;-72
2024/01/07 10:44:08;;;;;;;10.95;6.28;;;;;;;9.39;78.21;92800.59;5070512;28;20401;-72
2024/01/07 10:46:33;;;;;;;8.82;5.75;;;;;;;9.24;78.89;92799.66;5070934;28;20032;-72
2024/01/07 10:49:03;;;;;;;9.48;5.95;;;;;;;9.26;79.22;92804.69;5086264;28;20493;-73
2024/01/07 10:51:28;;;;;;;7.05;5.60;;;;;;;9.14;78.66;92802.47;5082272;28;20068;-72
2024/01/07 10:53:55;;;;;;;7.60;5.55;;;;;;;9.24;78.85;92820.38;5066442;28;20461;-72
2024/01/07 10:56:22;;;;;;;8.60;5.80;;;;;;;9.15;78.90;92806.66;5053189;28;21427;-73
2024/01/07 10:58:48;;;;;;;8.57;5.30;;;;;;;9.38;77.32;92809.31;5085683;28;20112;-73
2024/01/07 11:01:13;;;;;;;7.38;5.13;;;;;;;9.34;77.01;92807.25;5069158;28;20040;-72
2024/01/07 11:03:55;;;;;;;8.40;5.00;;;;;;;9.35;76.78;92811.44;5066110;28;20039;-73
2024/01/07 11:06:36;;;;;;;8.93;5.32;;;;;;;9.45;77.01;92812.06;5084109;28;20482;-74
2024/01/07 11:09:14;;;;;;;8.30;6.93;;;;;;;9.20;77.34;92815.72;5086352;28;20028;-73
2024/01/07 11:11:42;;;;;;;7.22;6.03;;;;;;;9.51;77.33;92806.19;5087853;28;20041;-73
2024/01/07 11:14:36;;;;;;;7.97;6.50;;;;;;;9.61;76.69;92805.97;5083161;28;20081;-73
2024/01/07 11:17:02;;;;;;;7.88;5.00;;;;;;;9.41;76.29;92803.00;5080171;28;20042;-73
2024/01/07 11:19:28;;;;;;;6.38;5.00;;;;;;;9.52;76.18;92802.63;5053629;28;20028;-73
2024/01/07 11:21:53;;;;;;;7.10;4.72;;;;;;;9.57;75.57;92808.09;5069796;28;20457;-73
2024/01/07 11:24:57;;;;;;;6.13;4.28;;;;;;;9.64;73.41;92805.66;5082293;28;20459;-72
2024/01/07 11:27:26;;;;;;;6.82;4.40;;;;;;;9.57;74.04;92802.13;5013086;28;20048;-72
2024/01/07 11:30:20;;;;;;;10.30;7.35;;;;;;;9.27;74.62;92794.13;5059981;28;20051;-72